Sagehen Creek Weather observations

Data are for observation ending at time listed.
 Day   Time    Ave.   Ave.  Ave.  Vector   Max.   Stn.    Total    Solar   Ave.  
  of    of     Air    Rel.  Wind   Wind    Wind   Baro.  Precip.   Rad.    Soil  
Year   Day     Temp.  Hum.  Speed  Dir.    Gust   Pres.                    Temp. 
2014   (PST)    F      %     mph   deg.    mph     mb.     in.     W/m2     F   
------------------------------------------------------------------------------
 355    4:00   33.0    95    1.0    22      2.5   838.1   21.18       0    999.0
 355    4:10   33.1    95    1.7    80      7.1   837.9   21.18       0    999.0
 355    4:20   34.8    94    2.5    85      6.1   838.1   21.18       0    999.0
 355    4:30   36.2    94    2.1   101      5.1   838.3   21.18       0    999.0
 355    4:40   36.0    94    2.9    64      7.6   837.8   21.18       0    999.0
 355    4:50   36.3    94    2.9    71      7.6   838.0   21.17       0    999.0
 355    5:00   35.9    94    2.9    92      5.6   838.3   21.17       0    999.0
 355    5:10   35.1    94    1.8    38      5.4   837.9   21.17       0    999.0
 355    5:20   35.8    94    1.6    80      3.8   838.2   21.17       0    999.0
 355    5:30   34.8    94    1.3    30      3.2   838.5   21.17       0    999.0
 355    5:40   34.5    94    2.0    68      5.0   838.6   21.17       0    999.0
 355    5:50   34.0    94    1.7   107      4.5   838.3   21.17       0    999.0
 355    6:00   33.9    94    1.2    54      3.6   838.1   21.17       0    999.0
 355    6:10   33.3    94    0.9   120      2.1   838.5   21.17       0    999.0
 355    6:20   33.1    94    1.5   309      3.8   838.3   21.17       0    999.0
 355    6:30   33.1    94    1.3   351      3.8   838.0   21.17       0    999.0
 355    6:40   32.9    94    0.8    83      3.0   838.6   21.17       0    999.0
 355    6:50   32.8    94    1.0    76      3.3   838.6   21.17       0    999.0
 355    7:00   32.4    95    0.9     1      2.0   838.6   21.17       0    999.0
 355    7:10   32.2    95    0.7    48      1.9   838.3   21.17       0    999.0
 355    7:20   31.7    95    0.3   136      1.4   838.6   21.17       1    999.0
 355    7:30   31.2    95    0.5   326      1.7   838.9   21.17       4    999.0
 355    7:40   31.2    95    0.4   240      2.1   838.8   21.17      13    999.0
 355    7:50   31.2    95    0.5   262      1.8   838.8   21.17      24    999.0
 355    8:00   31.4    95    1.0    78      2.4   838.8   21.17      36    999.0
 355    8:10   31.7    95    1.0   159      2.8   839.4   21.17      42    999.0
 355    8:20   33.0    95    1.6   211      4.1   839.0   21.17      47    999.0
 355    8:30   34.9    95    1.4    61      3.3   838.6   21.17      56    999.0
 355    8:40   37.2    94    2.6    54     10.6   838.9   21.17      77    999.0
 355    8:50   39.1    94    1.9    57      4.2   839.1   21.17      73    999.0
 355    9:00   39.6    94    1.7    66      4.8   839.3   21.17      95    999.0
 355    9:10   40.3    90    1.3    47      3.7   839.2   21.17      96    999.0
 355    9:20   40.6    87    2.0   102      3.4   839.4   21.17      84    999.0
 355    9:30   40.6    87    1.6     8      4.6   839.7   21.17     104    999.0
 355    9:40   41.9    84    2.5    56      6.0   840.1   21.17     112    999.0
 355    9:50   43.8    79    2.3    47      6.5   840.0   21.17     206    999.0
 355   10:00   45.1    78    1.3   221      3.6   839.9   21.17     209    999.0
 355   10:10   45.0    76    1.4   240      4.7   839.6   21.17     224    999.0
 355   10:20   46.1    75    1.6   254      3.5   839.7   21.17     226    999.0
 355   10:30   46.3    75    0.8   203      3.2   839.8   21.16     260    999.0
 355   10:40   46.0    74    2.3   260      6.7   839.7   21.16     265    999.0
 355   10:50   47.5    72    1.2   243      3.5   839.8   21.16     351    999.0
 355   11:00   48.9    68    1.8   248      5.6   839.9   21.16     317    999.0
 355   11:10   49.2    66    2.0   262      4.5   839.5   21.16     361    999.0
 355   11:20   49.5    65    2.8   239      7.2   839.7   21.16     383    999.0
 355   11:30   49.6    65    2.2   234      6.0   839.9   21.16     376    999.0
 355   11:40   49.7    64    2.2   225      5.8   839.5   21.15     384    999.0
 355   11:50   46.2    49    3.4   224      6.9     0.0   21.15     447    999.0
 355   12:00   50.1    63    2.0   215      7.3    14.0   21.15     390    999.0
 355   12:10   49.9    63    2.9   232      7.4   839.4   21.15     446    999.0
 355   12:20   49.5    64    3.0   220      6.9   839.4   21.15     370    999.0
 355   12:30   50.0    63    2.7   212      5.8   839.3   21.15     477    999.0
 355   12:40   50.0    62    2.6   233      5.9   839.5   21.15     401    999.0
 355   12:50   49.6    63    2.9   238      6.7   839.6   21.14     411    999.0
 355   13:00   50.3    62    1.9   251      6.7   839.6   21.14     476    999.0
 355   13:10   50.4    61    2.0   251      5.5   839.5   21.14     239    999.0
 355   13:20   49.6    63    2.0   245      6.1   839.2   21.15     159    999.0
 355   13:30   49.2    64    1.2   327      3.5   839.0   21.16     147    999.0
 355   13:40   49.4    64    1.6   263      4.5   839.5   21.16     257    999.0
 355   13:50   49.3    65    1.9   346      6.7   839.4   21.16     199    999.0
 355   14:00   48.9    66    2.3   262      6.9   839.3   21.16     147    999.0
 355   14:10   48.7    65    2.7   267      7.8   839.0   21.16     169    999.0
 355   14:20   48.5    66    2.2   234      6.2   839.0   21.16     243    999.0
 355   14:30   47.8    67    3.6   247      8.5   839.0   21.16     142    999.0
 355   14:40   47.7    67    1.6   276      4.6   839.2   21.16     102    999.0
 355   14:50   47.3    68    1.9   227      5.1   839.2   21.16      91    999.0
 355   15:00   47.1    69    1.6   231      5.2   839.1   21.16     103    999.0
 355   15:10   46.5    71    1.2   222      3.8   839.5   21.16      85    999.0
 355   15:20   46.5    71    1.8   282      5.1   839.6   21.16      74    999.0
 355   15:30   46.1    73    1.3   332      5.7   839.6   21.16      76    999.0
 355   15:40   45.8    74    1.4   325      4.5   839.3   21.16      72    999.0
 355   15:50   41.7    57    0.2    40      0.5     0.0   21.16      56    999.0
 355   16:00   44.7    76    1.4   253      4.0    14.0   21.16      50    999.0
 355   16:10   43.8    78    0.9   231      4.3   839.3   21.16      37    999.0
 355   16:20   43.0    79    0.5   134      2.6   839.5   21.16      24    999.0
 355   16:30   42.2    80    0.6    51      2.9   839.8   21.16      15    999.0
 355   16:40   40.8    83    0.5    28      1.6   839.5   21.16       7    999.0
 355   16:50   39.4    84    0.3   236      1.2   839.5   21.16       5    999.0
 355   17:00   37.7    85    0.0    26      0.7   839.5   21.16       3    999.0
 355   17:10   36.5    87    0.6   184      1.7   840.0   21.16       0    999.0
 355   17:20   35.5    89    0.9   208      1.9   840.2   21.16       0    999.0
 355   17:30   35.0    90    0.5   259      2.4   840.3   21.16       0    999.0
 355   17:40   34.9    91    1.1    64      2.9   840.1   21.16       0    999.0
 355   17:50   35.7    92    0.5    65      2.2   840.2   21.16       0    999.0
 355   18:00   36.0    92    0.6    36      4.8   840.3   21.16       0    999.0
 355   18:10   35.5    91    0.5   241      2.4   840.1   21.16       0    999.0
 355   18:20   34.9    91    0.3   285      1.6   840.1   21.16       0    999.0
 355   18:30   34.4    91    0.4   239      1.5   840.1   21.16       0    999.0
 355   18:40   33.8    91    0.1   219      1.0   840.5   21.16       0    999.0
 355   18:50   33.3    92    0.3   260      1.5   840.4   21.16       0    999.0
 355   19:00   32.8    92    0.1   266      1.8   840.4   21.16       0    999.0
 355   19:10   32.4    92    0.6   249      2.1   840.6   21.16       0    999.0
 355   19:20   32.1    92    0.5   285      1.9   840.6   21.16       0    999.0
 355   19:30   31.8    93    0.2    78      1.1   840.6   21.16       0    999.0
 355   19:40   31.6    93    0.2   260      1.3   840.3   21.16       0    999.0
 355   19:50   31.5    93    0.6   263      1.5   840.5   21.16       0    999.0
 355   20:00   31.2    93    0.3   255      1.1   840.7   21.16       0    999.0
 355   20:10   30.8    93    0.1   263      0.9   840.7   21.16       0    999.0
 355   20:20   30.5    94    0.0   282      0.4   840.8   21.16       0    999.0
 355   20:30   30.1    94    0.2   262      0.9   840.8   21.16       0    999.0
 355   20:40   29.8    94    0.1   260      0.7   840.9   21.16       0    999.0
 355   20:50   29.4    94    0.0   268      0.7   840.8   21.16       0    999.0
 355   21:00   29.1    94    0.1   268      0.6   840.7   21.16       0    999.0
 355   21:10   29.0    94    0.3   274      1.1   841.2   21.16       0    999.0
 355   21:20   28.9    94    0.2   261      1.2   841.2   21.16       0    999.0
 355   21:30   28.7    94    0.4   270      1.2   841.1   21.16       0    999.0
 355   21:40   28.7    94    0.1   262      0.6   841.1   21.16       0    999.0
 355   21:50   28.6    94    0.0   291      0.3   841.1   21.16       0    999.0
 355   22:00   28.7    94    0.6   275      1.1   841.0   21.16       0    999.0
 355   22:10   28.8    94    0.2   269      0.8   840.7   21.16       0    999.0
 355   22:20   28.7    94    0.0   276      0.2   841.0   21.16       0    999.0
 355   22:30   28.7    94    0.5   273      1.0   841.2   21.15       0    999.0
 355   22:40   28.7    94    0.1   277      0.6   841.2   21.15       0    999.0
 355   22:50   28.5    94    0.4   269      1.0   841.2   21.15       0    999.0
 355   23:00   28.5    94    0.1   290      0.7   841.1   21.15       0    999.0
 355   23:10   28.3    94    0.1   249      0.9   840.9   21.16       0    999.0
 355   23:20   28.2    94    0.0   296      0.5   840.8   21.15       0    999.0
 355   23:30   28.2    94    0.0   273      0.1   840.7   21.16       0    999.0
 355   23:40   28.0    94    0.1   269      0.6   840.8   21.15       0    999.0
 355   23:50   27.8    94    0.2   266      0.8   840.8   21.15       0    999.0
 356    0:00   27.8    94    0.3   213      1.4   840.8   21.15       0    999.0
 356    0:10   27.6    94    0.2   265      0.9   840.8   21.15       0    999.0
 356    0:20   27.6    94    0.1   252      0.7   840.6   21.15       0    999.0
 356    0:30   27.6    94    0.4   248      1.1   840.5   21.15       0    999.0
 356    0:40   27.4    94    0.1   272      1.0   840.9   21.15       0    999.0
 356    0:50   27.3    94    0.1   267      0.9   841.0   21.15       0    999.0
 356    1:00   27.2    94    0.1   256      0.5   841.1   21.15       0    999.0
 356    1:10   27.2    94    0.2   246      0.7   840.4   21.15       0    999.0
 356    1:20   27.0    94    0.4   227      1.3   840.7   21.15       0    999.0
 356    1:30   27.0    94    0.2   262      1.1   840.9   21.15       0    999.0
 356    1:40   26.9    94    0.3   262      1.2   840.7   21.15       0    999.0
 356    1:50   26.8    94    0.2   277      1.0   840.8   21.15       0    999.0
 356    2:00   26.5    94    0.0   267      0.5   840.9   21.15       0    999.0
 356    2:10   26.4    94    0.4   268      1.3   840.8   21.15       0    999.0
 356    2:20   26.2    94    0.0   265      0.3   840.6   21.15       0    999.0
 356    2:30   26.0    94    0.5   266      1.1   840.4   21.15       0    999.0
 356    2:40   26.1    94    0.1   269      0.4   840.7   21.15       0    999.0
 356    2:50   26.0    94    0.4   273      0.9   840.5   21.15       0    999.0
 356    3:00   25.9    94    0.2   268      0.8   840.3   21.15       0    999.0
 356    3:10   25.8    94    0.2   274      1.0   840.7   21.15       0    999.0
 356    3:20   25.7    94    0.4   269      1.1   840.7   21.15       0    999.0
 356    3:30   25.6    94    0.1   277      0.9   840.7   21.15       0    999.0
 356    3:40   25.6    94    0.5   273      1.0   840.2   21.15       0    999.0
 356    3:50   25.5    94    0.0     0      0.0   840.3   21.15       0    999.0

Return to Sagehen Creek graphs page.


Western Regional Climate Center,wrcc@dri.edu